Nearby METAR Reports

 

KDVT - Phoenix/Deer Vly, Arizona, USA
Distance from station: SW 14mi, 22km
Updated: 2021-01-18 18:53
NOT Current
Clear
Clear
 Wind from SW
Wind: SW 3 mph , 6 km/h
Temperature: 63°F , 17°C
Dew Point: 18°F , -8°C
Humidity: 17%
Barometer: 29.77 inHg , 1008.1 hPa
Clouds: Clear
Visibility: 10 miles , 16 km
2021/01/19 01:53 KDVT 190153Z 23003KT 10SM CLR 17/M08 A2977 RMK AO2 SLP072 T01721083
KSDL - Scottsdale, Arizona, USA
Distance from station: S 15mi, 23km
Updated: 2021-01-18 18:53
NOT Current
Clear
Clear
 Wind from calm
Wind: Calm
Temperature: 64°F , 18°C
Dew Point: 16°F , -9°C
Humidity: 15%
Barometer: 29.78 inHg , 1008.5 hPa
Clouds: Clear
Visibility: 10 miles , 16 km
2021/01/19 01:53 KSDL 190153Z 00000KT 10SM CLR 18/M09 A2978 RMK AO2 SLP074 T01831089 $
KFFZ - Mesa/Falcon Fld, Arizona, USA
Distance from station: SSE 27mi, 44km
Updated: 2021-01-18 18:54
NOT Current
Clear
Clear
 Wind from calm
Wind: Calm
Temperature: 64°F , 18°C
Dew Point: 18°F , -8°C
Humidity: 16%
Barometer: 29.76 inHg , 1007.8 hPa
Clouds: Clear
Visibility: 10 miles , 16 km
2021/01/19 01:54 KFFZ 190154Z 00000KT 10SM CLR 18/M08 A2976 RMK AO2 SLP066 T01831078
 
KPHX - Phoenix/Sky Hrbr, Arizona, USA
Distance from station: SSW 28mi, 45km
Updated: 2021-01-18 18:51
NOT Current
Mostly cloudy
Mostly cloudy
 Wind from WNW
Wind: WNW 6 mph , 9 km/h
Temperature: 68°F , 20°C
Dew Point: 16°F , -9°C
Humidity: 13%
Barometer: 29.75 inHg , 1007.5 hPa
Clouds: Mostly cloudy
Visibility: 10 miles , 16 km
Cloud details: Partly cloudy 13000 ft
Mostly cloudy 16000 ft
Mostly cloudy 20000 ft
2021/01/19 01:51 KPHX 190151Z 29005KT 10SM SCT130 BKN160 BKN200 20/M09 A2975 RMK AO2 SLP067 VIRGA T02001089 $
KLUF - Luke Afb/Glendal, Arizona, USA
Distance from station: SW 34mi, 55km
Updated: 2021-01-18 19:18
Overcast
Overcast
 Wind from W
Wind: W 3 mph , 6 km/h
Temperature: 63°F , 17°C
Dew Point: 21°F , -6°C
Humidity: 20%
Barometer: 29.75 inHg , 1007.5 hPa
Clouds: Overcast
Visibility: 10 miles , 16 km
Cloud details: Few Clouds 9000 ft
Overcast 12000 ft
2021/01/19 02:18 KLUF 190218Z AUTO 26003KT 10SM FEW090 OVC120 17/M06 A2975 RMK AO2 SLP073 $
KGYR - Goodyear Municip, Arizona, USA
Distance from station: SW 39mi, 63km
Updated: 2021-01-18 18:47
NOT Current
Mostly cloudy
Mostly cloudy
 Wind from calm
Wind: Calm
Temperature: 64°F , 18°C
Dew Point: 21°F , -6°C
Humidity: 19%
Barometer: 29.77 inHg , 1008.1 hPa
Clouds: Mostly cloudy
Visibility: 10 miles , 16 km
Cloud details: Partly cloudy 14000 ft
Mostly cloudy 20000 ft
2021/01/19 01:47 KGYR 190147Z 00000KT 10SM SCT140 BKN200 18/M06 A2977
 
KIWA - Chandler/Mesa, Arizona, USA
Distance from station: SSE 39mi, 63km
Updated: 2021-01-18 17:55
NOT Current
Mostly cloudy
Mostly cloudy
 Wind from calm
Wind: Calm
Temperature: 66°F , 19°C
Dew Point: 16°F , -9°C
Humidity: 14%
Barometer: 29.78 inHg , 1008.5 hPa
Clouds: Mostly cloudy
Visibility: 10 miles , 16 km
Cloud details: Mostly cloudy 15000 ft
2021/01/19 00:55 KIWA 190055Z 00000KT 10SM BKN150 19/M09 A2978
KPAN - Payson, Arizona, USA
Distance from station: NE 44mi, 70km
Updated: 2021-01-18 19:15
Light drizzle, Mostly cloudy
Light drizzle, Mostly cloudy
 Wind from NNE
Wind: NNE 7 mph , 11 km/h, Gust: 17 mph , 28 km/h
Temperature: 52°F , 11°C
Dew Point: 21°F , -6°C
Humidity: 30%
Barometer: 29.90 inHg , 1012.5 hPa
Summary: Light Drizzle
Clouds: Mostly cloudy
Visibility: 10 miles , 16 km
Cloud details: Few Clouds 2200 ft
Partly cloudy 2900 ft
Mostly cloudy 4300 ft
2021/01/19 02:15 KPAN 190215Z AUTO 03006G15KT 10SM -DZ FEW022 SCT029 BKN043 11/M06 A2990 RMK AO2
KBXK - Buckeye, Arizona, USA
Distance from station: WSW 53mi, 86km
Updated: 2020-12-28 02:35
NOT Current

 
Barometer: 29.81 inHg , 1009.5 hPa
2020/12/28 09:35 KBXK 280935Z AUTO A2981 RMK A01
 
KA39 - Maricopa Ak-Chin, Arizona, USA
Distance from station: S 58mi, 94km
Updated: 2021-01-18 19:15
Clear
Clear
 Wind from ENE
Wind: ENE 3 mph , 6 km/h
Temperature: 63°F , 17°C
Dew Point: 16°F , -9°C
Humidity: 16%
Barometer: 29.82 inHg , 1009.8 hPa
Clouds: Clear
Visibility: 10 miles , 16 km
2021/01/19 02:15 KA39 190215Z AUTO 06003KT 10SM CLR 17/M09 A2982 RMK AO2
KPRC - Prescott, Arizona, USA
Distance from station: NNW 64mi, 103km
Updated: 2021-01-18 18:53
NOT Current
Mostly cloudy
Mostly cloudy
 Wind from S
Wind: S 5 mph , 7 km/h
Temperature: 50°F , 10°C
Wind Chill: 48°F , 9°C
Dew Point: 7°F , -14°C
Humidity: 17%
Barometer: 29.86 inHg , 1011.2 hPa
Clouds: Mostly cloudy
Visibility: 10 miles , 16 km
Cloud details: Mostly cloudy 12000 ft
2021/01/19 01:53 KPRC 190153Z 18004KT 10SM BKN120 10/M14 A2986 RMK AO2 SLP087 T01001139
KSEZ - Sedona, Arizona, USA
Distance from station: N 71mi, 114km
Updated: 2021-01-18 19:15
Partly cloudy
Partly cloudy
 Wind from NE
Wind: NE 8 mph , 13 km/h
Temperature: 54°F , 12°C
Dew Point: 12°F , -11°C
Humidity: 19%
Barometer: 29.87 inHg , 1011.5 hPa
Clouds: Partly cloudy
Visibility: 10 miles , 16 km
Cloud details: Partly cloudy 11000 ft
2021/01/19 02:15 KSEZ 190215Z AUTO 04007KT 10SM SCT110 12/M11 A2987 RMK AO2
 
KFLG - Flagstaff, Arizona, USA
Distance from station: N 91mi, 147km
Updated: 2021-01-18 18:57
NOT Current
Mostly cloudy
Mostly cloudy
 Wind from ESE
Wind: ESE 3 mph , 6 km/h
Temperature: 36°F , 2°C
Dew Point: 10°F , -12°C
Humidity: 35%
Barometer: 29.92 inHg , 1013.2 hPa
Clouds: Mostly cloudy
Visibility: 10 miles , 16 km
Cloud details: Mostly cloudy 11000 ft
2021/01/19 01:57 KFLG 190157Z 11003KT 10SM BKN110 02/M12 A2992 RMK AO2 SLP127 T00171117